Time;durP1;ratioP1;P1;durP2;ratioP2;P2;SDS_P1;SDS_P2;PMS_P1;PMS_P2;Temp;Humidity;BMP_temperature;BMP_pressure;BME280_temperature;BME280_humidity;BME280_pressure;Samples;Min_cycle;Max_cycle;Signal;HPM_P1;HPM_P2
2022/03/12 00:01:24;;;;;;;14.68;6.80;;;8.80;39.80;;;;;;2328158;54;21421;-66
2022/03/12 00:03:50;;;;;;;12.00;6.22;;;8.80;39.90;;;;;;2296363;54;21033;-66
2022/03/12 00:06:18;;;;;;;10.55;5.75;;;8.80;39.80;;;;;;2298170;54;20960;-65
2022/03/12 00:08:48;;;;;;;13.50;6.97;;;8.80;39.80;;;;;;2299072;54;20968;-66
2022/03/12 00:11:58;;;;;;;11.68;6.15;;;8.80;40.00;;;;;;2300598;55;21011;-65
2022/03/12 00:14:27;;;;;;;13.13;6.55;;;8.80;40.10;;;;;;2297818;54;20928;-65
2022/03/12 00:16:54;;;;;;;11.38;6.53;;;8.80;39.80;;;;;;2300137;54;21031;-65
2022/03/12 00:19:21;;;;;;;11.98;5.97;;;8.70;39.90;;;;;;2290841;54;20960;-65
2022/03/12 00:21:48;;;;;;;16.08;8.07;;;8.80;40.00;;;;;;2330345;54;21631;-65
2022/03/12 00:24:16;;;;;;;13.57;7.95;;;8.70;39.90;;;;;;2291839;54;20953;-65
2022/03/12 00:26:43;;;;;;;13.15;7.72;;;8.70;40.00;;;;;;2281393;55;21035;-65
2022/03/12 00:29:15;;;;;;;14.02;7.43;;;8.70;40.10;;;;;;2299075;54;21423;-64
2022/03/12 00:31:45;;;;;;;;;;;8.70;40.10;;;;;;2278792;56;21537;-65
2022/03/12 00:34:21;;;;;;;12.20;6.18;;;8.70;40.50;;;;;;2303406;54;20107;-65
2022/03/12 00:36:48;;;;;;;12.02;5.93;;;8.80;40.20;;;;;;2290929;54;21529;-65
2022/03/12 00:39:14;;;;;;;14.15;7.30;;;8.70;40.00;;;;;;2314007;54;20940;-64
2022/03/12 00:41:45;;;;;;;14.60;7.62;;;8.70;40.10;;;;;;2298112;54;21413;-66
2022/03/12 00:44:44;;;;;;;11.30;6.40;;;8.70;40.30;;;;;;2269452;56;21064;-64
2022/03/12 00:47:11;;;;;;;10.90;6.12;;;8.70;40.60;;;;;;2293493;54;20968;-65
2022/03/12 00:49:37;;;;;;;10.30;5.37;;;8.70;40.20;;;;;;2313094;54;20924;-65
2022/03/12 00:52:04;;;;;;;12.10;6.03;;;8.70;40.20;;;;;;2294390;55;21024;-65
2022/03/12 00:54:31;;;;;;;10.52;6.12;;;8.70;40.30;;;;;;2298082;54;21031;-65
2022/03/12 00:56:58;;;;;;;11.23;4.80;;;8.70;40.40;;;;;;2300299;54;21090;-65
2022/03/12 00:59:24;;;;;;;9.73;5.43;;;8.70;40.50;;;;;;2298990;54;20980;-65
2022/03/12 01:01:54;;;;;;;10.38;5.47;;;8.80;40.60;;;;;;2299987;54;21058;-66
2022/03/12 01:04:20;;;;;;;8.98;4.80;;;8.80;40.80;;;;;;2326764;54;20960;-65
2022/03/12 01:06:47;;;;;;;9.85;5.32;;;8.80;40.70;;;;;;2296949;54;21009;-65
2022/03/12 01:09:13;;;;;;;9.05;4.30;;;8.80;40.70;;;;;;2305981;54;20982;-64
2022/03/12 01:11:43;;;;;;;10.52;5.25;;;8.90;40.80;;;;;;2292897;54;21601;-65
2022/03/12 01:14:10;;;;;;;10.70;5.60;;;8.90;40.80;;;;;;2288165;54;21862;-65
2022/03/12 01:16:55;;;;;;;9.98;5.68;;;9.00;40.90;;;;;;2288985;54;20995;-65
2022/03/12 01:19:22;;;;;;;11.23;6.05;;;9.10;41.40;;;;;;2296345;54;21006;-65
2022/03/12 01:21:52;;;;;;;11.45;6.30;;;9.20;41.10;;;;;;2298001;54;20940;-66
2022/03/12 01:24:18;;;;;;;12.43;5.78;;;9.20;41.10;;;;;;2292786;55;21479;-65
2022/03/12 01:30:27;;;;;;;13.18;6.18;;;9.40;41.30;;;;;;2297787;54;20960;-65
2022/03/12 01:32:53;;;;;;;10.85;6.22;;;9.40;40.90;;;;;;2303337;54;21051;-66
2022/03/12 01:35:36;;;;;;;10.30;5.80;;;9.50;41.00;;;;;;2288207;55;20940;-66
2022/03/12 01:38:02;;;;;;;10.07;5.68;;;9.50;41.30;;;;;;2313200;54;21028;-66
2022/03/12 01:40:29;;;;;;;11.10;6.47;;;9.60;41.10;;;;;;2291940;54;21060;-65
2022/03/12 01:42:56;;;;;;;11.65;6.50;;;9.60;41.00;;;;;;2297311;54;21082;-65
2022/03/12 01:45:29;;;;;;;11.15;6.28;;;9.60;41.00;;;;;;2298793;55;20976;-65
2022/03/12 01:48:01;;;;;;;;;;;9.70;41.10;;;;;;2292286;54;20960;-66
2022/03/12 01:50:38;;;;;;;9.57;5.65;;;9.70;41.30;;;;;;2299357;54;20120;-66
2022/03/12 01:53:08;;;;;;;11.63;6.37;;;9.70;40.90;;;;;;2297300;54;21067;-65
2022/03/12 01:55:59;;;;;;;12.52;6.28;;;9.70;40.90;;;;;;2360643;53;20992;-66
2022/03/12 01:58:27;;;;;;;10.45;6.80;;;9.80;40.90;;;;;;2291837;54;20959;-65
2022/03/12 02:00:57;;;;;;;13.32;7.93;;;9.80;40.90;;;;;;2297639;54;21470;-65
2022/03/12 02:03:53;;;;;;;11.77;6.82;;;9.80;41.00;;;;;;2297614;54;21797;-66
2022/03/12 02:06:43;;;;;;;10.95;6.35;;;9.80;41.20;;;;;;2291797;54;20980;-66
2022/03/12 02:09:32;;;;;;;11.63;6.57;;;9.80;41.10;;;;;;2288554;54;21482;-65
2022/03/12 02:11:59;;;;;;;10.63;5.95;;;9.80;41.10;;;;;;2285717;54;21118;-65
2022/03/12 02:14:27;;;;;;;13.30;7.45;;;9.90;41.00;;;;;;2370593;54;21069;-65
2022/03/12 02:16:56;;;;;;;12.30;6.00;;;9.90;41.10;;;;;;2298401;54;20988;-66
2022/03/12 02:19:25;;;;;;;10.73;5.93;;;9.90;41.10;;;;;;2270186;55;20944;-65
2022/03/12 02:21:56;;;;;;;12.65;6.15;;;9.90;41.00;;;;;;2300771;54;20985;-66
2022/03/12 02:28:19;;;;;;;9.65;5.62;;;10.00;40.40;;;;;;2298849;54;20979;-66
2022/03/12 02:30:51;;;;;;;10.80;5.72;;;10.00;40.30;;;;;;2299903;54;22177;-66
2022/03/12 02:33:26;;;;;;;10.30;5.65;;;9.90;40.90;;;;;;2294264;54;20944;-66
2022/03/12 02:35:53;;;;;;;11.57;6.70;;;10.00;40.20;;;;;;2294194;54;20929;-65
2022/03/12 02:38:21;;;;;;;10.00;5.78;;;10.00;40.20;;;;;;2291698;54;20936;-66
2022/03/12 02:40:48;;;;;;;14.05;7.68;;;10.00;40.30;;;;;;2299221;54;20948;-66
2022/03/12 02:43:20;;;;;;;11.60;6.65;;;10.00;40.30;;;;;;2297377;54;21836;-65
2022/03/12 02:46:11;;;;;;;17.58;7.55;;;10.00;40.40;;;;;;2349202;54;20995;-66
2022/03/12 02:48:38;;;;;;;18.98;9.00;;;10.00;40.40;;;;;;2329427;54;21071;-66
2022/03/12 02:51:05;;;;;;;15.95;8.75;;;10.00;40.40;;;;;;2298574;54;21071;-66
2022/03/12 02:53:33;;;;;;;13.55;7.35;;;10.00;40.40;;;;;;2301315;54;20976;-66
2022/03/12 02:55:59;;;;;;;14.75;7.75;;;10.00;40.50;;;;;;2295547;54;20989;-65
2022/03/12 02:58:27;;;;;;;12.95;7.25;;;10.00;40.40;;;;;;2268396;56;21684;-65
2022/03/12 03:00:53;;;;;;;13.20;7.57;;;10.00;40.50;;;;;;2298434;54;21043;-66
2022/03/12 03:03:20;;;;;;;12.68;7.15;;;10.00;40.50;;;;;;2300782;54;21417;-66
2022/03/12 03:05:50;;;;;;;14.40;7.50;;;10.00;40.60;;;;;;2284358;55;21024;-65
2022/03/12 03:08:18;;;;;;;13.57;7.62;;;10.00;40.60;;;;;;2357814;54;22163;-65
2022/03/12 03:10:46;;;;;;;12.05;6.87;;;10.00;40.70;;;;;;2297225;54;21476;-65
2022/03/12 03:13:56;;;;;;;11.68;6.35;;;10.00;40.70;;;;;;2306761;54;20930;-65
2022/03/12 03:16:22;;;;;;;13.25;6.50;;;10.10;41.00;;;;;;2299633;54;20956;-66
2022/03/12 03:19:07;;;;;;;12.15;6.75;;;10.10;40.60;;;;;;2305689;54;21302;-65
2022/03/12 03:21:36;;;;;;;11.52;6.43;;;10.10;40.90;;;;;;2385943;54;20964;-66
2022/03/12 03:27:09;;;;;;;11.60;6.28;;;10.00;40.60;;;;;;2296954;54;20948;-64
2022/03/12 03:29:36;;;;;;;10.57;6.03;;;10.00;40.60;;;;;;2297699;54;21048;-65
2022/03/12 03:32:05;;;;;;;10.43;6.07;;;10.00;40.70;;;;;;2300561;55;21056;-65
2022/03/12 03:34:41;;;;;;;11.15;6.87;;;10.00;40.80;;;;;;2288792;54;20976;-66
2022/03/12 03:37:09;;;;;;;12.52;5.97;;;10.00;41.00;;;;;;2298127;54;21742;-66
2022/03/12 03:39:45;;;;;;;11.25;6.43;;;10.00;40.90;;;;;;2292118;55;20980;-65
2022/03/12 03:42:18;;;;;;;11.35;6.40;;;10.00;40.90;;;;;;2291517;54;21033;-65
2022/03/12 03:44:48;;;;;;;13.75;6.35;;;10.00;41.20;;;;;;2293465;54;20960;-66
2022/03/12 03:47:16;;;;;;;11.50;6.60;;;10.00;41.00;;;;;;2298424;54;21000;-65
2022/03/12 03:49:44;;;;;;;9.95;6.07;;;10.00;41.00;;;;;;2377634;54;21743;-65
2022/03/12 03:52:11;;;;;;;11.30;6.32;;;10.00;41.10;;;;;;2300459;54;20989;-65
2022/03/12 03:54:40;;;;;;;12.00;6.82;;;10.00;41.10;;;;;;2320594;54;21357;-66
2022/03/12 03:57:15;;;;;;;11.18;6.32;;;10.00;41.10;;;;;;2291028;55;21031;-66
2022/03/12 03:59:41;;;;;;;10.63;5.70;;;10.00;41.10;;;;;;2299497;54;20928;-65
2022/03/12 04:02:08;;;;;;;11.55;6.20;;;10.10;41.00;;;;;;2269178;56;21012;-65
2022/03/12 04:04:38;;;;;;;12.95;7.65;;;10.10;41.00;;;;;;2297620;54;20936;-65
2022/03/12 04:07:06;;;;;;;11.57;7.07;;;10.10;41.00;;;;;;2297986;54;20995;-66
2022/03/12 04:09:41;;;;;;;12.20;5.70;;;10.10;41.10;;;;;;2270304;56;21505;-66
2022/03/12 04:12:08;;;;;;;11.77;6.22;;;10.10;41.00;;;;;;2307012;54;21007;-65
2022/03/12 04:14:47;;;;;;;13.55;6.85;;;10.10;41.00;;;;;;2293968;54;20924;-65
2022/03/12 04:17:14;;;;;;;12.43;6.90;;;10.20;41.10;;;;;;2268776;56;20936;-65
2022/03/12 04:20:00;;;;;;;11.70;6.70;;;10.20;41.10;;;;;;2298711;54;21561;-66
2022/03/12 04:25:20;;;;;;;9.38;6.03;;;10.20;41.10;;;;;;2301121;55;21451;-66
2022/03/12 04:27:59;;;;;;;12.98;6.85;;;10.20;41.00;;;;;;2304471;54;20976;-66
2022/03/12 04:30:28;;;;;;;12.15;6.65;;;10.30;41.10;;;;;;2302027;54;21017;-66
2022/03/12 04:32:55;;;;;;;10.80;6.62;;;10.30;41.10;;;;;;2322653;54;20966;-66
2022/03/12 04:38:50;;;;;;;9.65;5.62;;;10.30;41.40;;;;;;2290049;55;20956;-65
2022/03/12 04:41:17;;;;;;;12.73;6.80;;;10.30;41.00;;;;;;2297826;54;21007;-66
2022/03/12 04:43:48;;;;;;;10.52;6.72;;;10.30;41.00;;;;;;2298737;54;20951;-66
2022/03/12 04:46:15;;;;;;;11.23;6.50;;;10.30;41.20;;;;;;2306512;54;21021;-66
2022/03/12 04:48:51;;;;;;;11.73;6.78;;;10.30;41.20;;;;;;2292147;54;20975;-66
2022/03/12 04:51:21;;;;;;;14.50;6.57;;;10.30;41.40;;;;;;2285616;54;20976;-65
2022/03/12 04:53:56;;;;;;;10.85;5.62;;;10.30;41.20;;;;;;2299217;54;21026;-64
2022/03/12 04:56:44;;;;;;;10.07;5.80;;;10.30;41.30;;;;;;2271682;56;20936;-66
2022/03/12 04:59:13;;;;;;;10.57;6.25;;;10.30;41.40;;;;;;2298304;54;20972;-65
2022/03/12 05:01:40;;;;;;;11.25;6.28;;;10.20;41.10;;;;;;2297808;54;20975;-65
2022/03/12 05:04:36;;;;;;;;;;;;;;;;;;;;;
2022/03/12 05:07:12;;;;;;;10.63;5.75;;;10.20;41.60;;;;;;2309407;54;21077;-65
2022/03/12 05:13:06;;;;;;;10.20;5.75;;;10.20;41.60;;;;;;2297851;54;20991;-65
2022/03/12 05:15:37;;;;;;;9.25;5.80;;;10.10;41.20;;;;;;2286103;54;22183;-64
2022/03/12 05:18:23;;;;;;;10.27;6.10;;;10.10;41.30;;;;;;2325915;54;20952;-66
2022/03/12 05:24:18;;;;;;;9.30;5.50;;;10.10;41.60;;;;;;2294327;54;20928;-65
2022/03/12 05:30:13;;;;;;;12.18;7.12;;;10.00;41.40;;;;;;2298178;55;20936;-65
2022/03/12 05:32:44;;;;;;;9.68;5.78;;;10.00;41.30;;;;;;2304355;54;21501;-66
2022/03/12 05:35:11;;;;;;;10.15;6.35;;;9.90;42.20;;;;;;2309133;54;20929;-66
2022/03/12 05:37:41;;;;;;;10.93;6.28;;;9.90;42.20;;;;;;2301419;54;21457;-67
2022/03/12 05:40:09;;;;;;;11.57;6.57;;;9.90;42.20;;;;;;2294868;55;20964;-66
2022/03/12 05:42:55;;;;;;;11.90;6.43;;;9.90;42.30;;;;;;2292338;58;21044;-65
2022/03/12 05:45:23;;;;;;;10.20;5.53;;;9.90;42.40;;;;;;2296034;54;21556;-66
2022/03/12 05:47:50;;;;;;;12.60;6.68;;;9.80;42.30;;;;;;2291909;54;20999;-65
2022/03/12 05:50:18;;;;;;;10.10;5.75;;;9.80;42.30;;;;;;2299607;54;21804;-65
2022/03/12 05:52:50;;;;;;;13.25;7.05;;;9.80;42.30;;;;;;2333282;54;20973;-66
2022/03/12 05:55:18;;;;;;;14.27;7.53;;;9.80;42.50;;;;;;2290976;58;21059;-65
2022/03/12 05:57:45;;;;;;;11.98;7.22;;;9.80;42.40;;;;;;2291973;54;20936;-65
2022/03/12 06:00:16;;;;;;;14.23;7.10;;;9.70;42.40;;;;;;2296562;54;20943;-65
2022/03/12 06:02:51;;;;;;;9.85;5.87;;;9.70;42.50;;;;;;2329233;54;20880;-65
2022/03/12 06:05:26;;;;;;;10.23;6.20;;;9.70;42.50;;;;;;2298907;54;21007;-65
2022/03/12 06:07:53;;;;;;;10.27;5.72;;;9.70;42.60;;;;;;2304578;54;21412;-67
2022/03/12 06:10:25;;;;;;;11.30;6.30;;;9.70;42.60;;;;;;2289845;55;20988;-65
2022/03/12 06:13:06;;;;;;;;;;;;;;;;;;;;;
2022/03/12 06:16:04;;;;;;;9.30;5.68;;;9.60;42.70;;;;;;2302507;54;20947;-66
2022/03/12 06:18:41;;;;;;;10.98;6.18;;;9.60;42.90;;;;;;2268445;56;21385;-65
2022/03/12 06:21:20;;;;;;;;;;;;;;;;;;;;;
2022/03/12 06:23:56;;;;;;;11.68;6.47;;;9.60;42.90;;;;;;2298772;54;21071;-66
2022/03/12 06:26:25;;;;;;;13.52;6.35;;;9.60;42.90;;;;;;2271923;54;21557;-66
2022/03/12 06:28:53;;;;;;;10.82;5.95;;;9.60;42.90;;;;;;2298512;54;21008;-65
2022/03/12 06:31:20;;;;;;;11.25;6.68;;;9.60;43.00;;;;;;2297070;54;20996;-65
2022/03/12 06:33:49;;;;;;;10.93;6.03;;;9.60;43.00;;;;;;2291522;54;20992;-65
2022/03/12 06:36:16;;;;;;;9.80;6.03;;;9.60;43.20;;;;;;2297169;55;20964;-65
2022/03/12 06:38:45;;;;;;;10.32;6.30;;;9.70;43.20;;;;;;2293108;54;20968;-66
2022/03/12 06:41:15;;;;;;;11.32;6.65;;;9.70;43.30;;;;;;2304695;54;21013;-65
2022/03/12 06:43:43;;;;;;;13.05;7.35;;;9.70;43.30;;;;;;2288983;55;21402;-65
2022/03/12 06:46:15;;;;;;;11.10;6.72;;;9.70;43.30;;;;;;2289818;55;20956;-66
2022/03/12 06:50:36;;;;;;;12.00;7.15;;;9.80;43.50;;;;;;2360502;54;21934;-65
2022/03/12 06:53:06;;;;;;;9.65;5.68;;;9.90;44.30;;;;;;2299247;55;21053;-65
2022/03/12 06:56:13;;;;;;;9.68;5.68;;;9.90;43.50;;;;;;2297301;55;20956;-66
2022/03/12 06:58:59;;;;;;;11.18;5.85;;;9.90;43.80;;;;;;2302420;54;20972;-65
2022/03/12 07:01:27;;;;;;;9.40;6.50;;;10.00;43.10;;;;;;2311960;54;21934;-66
2022/03/12 07:11:03;;;;;;;10.98;6.75;;;10.20;43.50;;;;;;2298626;58;21460;-66
2022/03/12 07:13:30;;;;;;;13.48;8.40;;;10.30;43.30;;;;;;2303592;54;21050;-66
2022/03/12 07:15:57;;;;;;;13.20;8.13;;;10.40;43.40;;;;;;2294531;54;21723;-65
2022/03/12 07:18:30;;;;;;;16.92;10.20;;;10.50;43.50;;;;;;2299357;55;20988;-66
2022/03/12 07:21:06;;;;;;;15.55;8.85;;;10.60;43.60;;;;;;2343647;54;20983;-66
2022/03/12 07:23:38;;;;;;;14.77;9.18;;;10.60;43.40;;;;;;2306155;54;21465;-66
2022/03/12 07:26:05;;;;;;;12.90;7.90;;;10.70;43.50;;;;;;2304822;54;20975;-66
2022/03/12 07:28:35;;;;;;;42.15;18.48;;;10.80;43.40;;;;;;2277882;54;20956;-66
2022/03/12 07:31:08;;;;;;;28.20;13.13;;;10.90;43.60;;;;;;2406491;54;21579;-65
2022/03/12 07:33:34;;;;;;;23.90;11.93;;;10.90;43.60;;;;;;2296303;54;21008;-66
2022/03/12 07:36:01;;;;;;;18.67;10.77;;;11.00;43.60;;;;;;2302830;54;21010;-66
2022/03/12 07:42:08;;;;;;;27.37;12.57;;;11.20;43.80;;;;;;2291110;54;21008;-65
2022/03/12 07:48:43;;;;;;;22.33;11.52;;;11.40;43.60;;;;;;2298529;58;20928;-67
2022/03/12 07:51:12;;;;;;;25.30;13.80;;;11.50;43.40;;;;;;2287775;54;20982;-66
2022/03/12 07:53:39;;;;;;;20.73;12.45;;;11.60;43.10;;;;;;2295023;54;20955;-66
2022/03/12 07:56:06;;;;;;;19.55;11.88;;;11.70;43.10;;;;;;2293104;55;21095;-66
2022/03/12 07:58:35;;;;;;;16.83;10.48;;;11.70;43.00;;;;;;2292991;54;21041;-66
2022/03/12 08:01:03;;;;;;;14.93;9.85;;;11.70;42.90;;;;;;2293342;55;20940;-65
2022/03/12 08:04:21;;;;;;;15.38;9.05;;;11.80;42.80;;;;;;2281451;55;20966;-66
2022/03/12 08:06:50;;;;;;;14.77;8.90;;;11.90;42.80;;;;;;2388827;53;20946;-66
2022/03/12 08:09:17;;;;;;;20.55;9.30;;;11.90;42.60;;;;;;2454106;53;21034;-66
2022/03/12 08:11:52;;;;;;;15.13;9.35;;;11.90;42.50;;;;;;2291669;54;21450;-66
2022/03/12 08:14:22;;;;;;;15.35;8.80;;;12.00;42.60;;;;;;2420134;53;20924;-66
2022/03/12 08:16:57;;;;;;;12.80;8.02;;;12.00;42.60;;;;;;2296650;54;21798;-66
2022/03/12 08:19:32;;;;;;;13.60;7.87;;;12.10;42.70;;;;;;2298730;55;20972;-66
2022/03/12 08:22:03;;;;;;;12.60;7.57;;;12.20;42.90;;;;;;2299666;54;20987;-66
2022/03/12 08:24:40;;;;;;;15.38;9.07;;;12.30;42.90;;;;;;2299334;54;21008;-65
2022/03/12 08:27:07;;;;;;;11.70;7.72;;;12.30;42.90;;;;;;2301020;54;20991;-65
2022/03/12 08:29:33;;;;;;;15.80;9.55;;;12.40;42.90;;;;;;2290907;54;20983;-66
2022/03/12 08:32:00;;;;;;;13.95;9.20;;;12.50;43.10;;;;;;2303060;54;21023;-66
2022/03/12 08:34:27;;;;;;;15.57;9.25;;;12.70;43.40;;;;;;2289256;54;20924;-66
2022/03/12 08:40:18;;;;;;;13.27;8.55;;;13.00;43.40;;;;;;2299872;54;21441;-66
2022/03/12 08:42:45;;;;;;;14.80;8.90;;;13.20;43.30;;;;;;2377752;53;20924;-65
2022/03/12 08:45:18;;;;;;;13.90;8.70;;;13.40;43.40;;;;;;2308305;54;22116;-67
2022/03/12 08:48:03;;;;;;;15.43;8.98;;;13.50;43.20;;;;;;2302147;54;20988;-66
2022/03/12 08:50:34;;;;;;;15.73;8.52;;;13.70;43.00;;;;;;2292904;55;20956;-66
2022/03/12 08:53:28;;;;;;;12.80;7.78;;;13.80;42.90;;;;;;2321249;55;20948;-66
2022/03/12 08:56:09;;;;;;;14.85;8.40;;;14.00;43.00;;;;;;2326994;54;21098;-66
2022/03/12 08:58:54;;;;;;;15.25;9.75;;;14.20;43.00;;;;;;2274228;55;20996;-67
2022/03/12 09:11:08;;;;;;;11.07;6.75;;;15.00;42.90;;;;;;2381195;54;21437;-67
2022/03/12 09:13:35;;;;;;;13.75;8.60;;;15.20;42.60;;;;;;2276432;55;21053;-66
2022/03/12 09:16:49;;;;;;;15.35;7.72;;;15.30;42.60;;;;;;2299326;55;21464;-67
2022/03/12 09:19:19;;;;;;;14.75;8.20;;;15.40;42.50;;;;;;2296088;54;20956;-67
2022/03/12 09:21:46;;;;;;;11.95;7.35;;;15.60;42.50;;;;;;2303703;54;20999;-66
2022/03/12 09:24:17;;;;;;;12.82;8.10;;;15.70;42.50;;;;;;2324889;54;21027;-67
2022/03/12 09:26:48;;;;;;;12.05;7.60;;;15.90;42.50;;;;;;2281695;55;21503;-66
2022/03/12 09:32:56;;;;;;;11.77;7.20;;;16.10;42.00;;;;;;2298335;54;20936;-67
2022/03/12 09:35:28;;;;;;;11.60;7.72;;;16.30;42.30;;;;;;2362334;53;21017;-67
2022/03/12 09:41:22;;;;;;;11.50;7.03;;;16.70;42.20;;;;;;2276471;55;21038;-64
2022/03/12 09:44:03;;;;;;;12.35;7.60;;;16.90;42.60;;;;;;2298574;55;21111;-67
2022/03/12 09:49:57;;;;;;;11.02;6.55;;;17.40;41.90;;;;;;2291736;55;21157;-66
2022/03/12 09:52:44;;;;;;;11.18;6.37;;;17.60;42.00;;;;;;2302444;54;20956;-66
2022/03/12 09:55:22;;;;;;;11.55;6.43;;;17.70;41.50;;;;;;2314887;54;20958;-67
2022/03/12 09:57:54;;;;;;;9.32;6.20;;;17.80;41.10;;;;;;2314341;53;21068;-66
2022/03/12 10:00:21;;;;;;;9.63;5.80;;;17.90;40.90;;;;;;2273047;55;21016;-67
2022/03/12 10:13:12;;;;;;;10.63;6.53;;;18.10;40.40;;;;;;2350311;54;21671;-66
2022/03/12 10:19:37;;;;;;;11.18;6.05;;;18.30;40.20;;;;;;2328851;54;21007;-66
2022/03/12 10:26:03;;;;;;;;;;;;;;;;;;;;;
2022/03/12 10:28:36;;;;;;;11.15;6.43;;;18.50;40.10;;;;;;2290017;55;20988;-66
2022/03/12 10:31:33;;;;;;;9.48;6.15;;;18.60;40.20;;;;;;2353035;54;20947;-67
2022/03/12 10:34:48;;;;;;;10.70;6.53;;;18.60;39.80;;;;;;2314911;54;20974;-65
2022/03/12 10:44:39;;;;;;;10.40;6.28;;;18.70;39.20;;;;;;2298889;55;21883;-66
2022/03/12 10:47:27;;;;;;;10.63;6.20;;;18.80;39.00;;;;;;2300528;54;21022;-66
2022/03/12 10:50:04;;;;;;;11.20;7.18;;;18.80;39.00;;;;;;2291712;53;21111;-67
2022/03/12 10:52:32;;;;;;;12.15;6.65;;;18.80;39.20;;;;;;2342614;53;20952;-66
2022/03/12 10:54:59;;;;;;;12.00;7.25;;;18.80;39.10;;;;;;2310788;53;20948;-67
2022/03/12 10:57:27;;;;;;;11.52;6.32;;;18.80;39.00;;;;;;2226524;56;21042;-67
2022/03/12 11:00:00;;;;;;;9.73;6.22;;;18.70;38.80;;;;;;2262863;54;21004;-67
2022/03/12 11:02:42;;;;;;;9.63;6.05;;;18.70;38.70;;;;;;2273151;56;20992;-67
2022/03/12 11:05:09;;;;;;;9.60;6.00;;;18.70;38.60;;;;;;2268303;56;20944;-67
2022/03/12 11:11:01;;;;;;;8.80;5.93;;;18.70;38.80;;;;;;2346260;54;21031;-67
2022/03/12 11:13:44;;;;;;;9.23;6.03;;;18.70;38.90;;;;;;2361743;54;21437;-67
2022/03/12 11:16:33;;;;;;;11.27;6.25;;;18.70;38.70;;;;;;2298570;54;21072;-67
2022/03/12 11:19:11;;;;;;;9.88;5.57;;;18.80;38.80;;;;;;2284995;56;21059;-67
2022/03/12 11:22:11;;;;;;;11.02;6.07;;;18.80;38.90;;;;;;2288687;54;21065;-68
2022/03/12 11:25:00;;;;;;;9.75;6.15;;;18.90;38.60;;;;;;2296600;54;20912;-67
2022/03/12 11:27:32;;;;;;;9.57;6.50;;;18.90;38.90;;;;;;2290971;54;20953;-67
2022/03/12 11:30:10;;;;;;;9.88;6.20;;;19.00;39.10;;;;;;2327882;54;21743;-68
2022/03/12 11:32:48;;;;;;;8.98;5.50;;;19.10;39.30;;;;;;2290384;54;21142;-67
2022/03/12 11:35:45;;;;;;;11.02;6.10;;;19.20;39.40;;;;;;2351823;54;20935;-69
2022/03/12 11:38:22;;;;;;;10.27;6.40;;;19.40;38.80;;;;;;2317780;53;20981;-67
2022/03/12 11:41:11;;;;;;;8.43;5.80;;;19.50;38.80;;;;;;2297933;54;21008;-68
2022/03/12 11:47:19;;;;;;;9.10;5.43;;;19.70;38.40;;;;;;2314996;54;20969;-67
2022/03/12 11:49:47;;;;;;;6.60;4.22;;;19.80;38.60;;;;;;2300012;54;21014;-67
2022/03/12 11:52:16;;;;;;;8.57;5.47;;;19.90;38.40;;;;;;2284097;55;21046;-66
2022/03/12 11:54:45;;;;;;;8.65;5.00;;;19.90;38.20;;;;;;2372270;54;21003;-66
2022/03/12 11:57:34;;;;;;;8.30;5.22;;;19.90;38.10;;;;;;2283182;54;21008;-68
2022/03/12 12:00:10;;;;;;;8.45;5.40;;;19.90;37.90;;;;;;2286093;54;20987;-67
2022/03/12 12:02:53;;;;;;;8.82;5.47;;;19.90;37.80;;;;;;2344704;54;20940;-66
2022/03/12 12:05:51;;;;;;;9.20;5.57;;;20.00;37.70;;;;;;2299481;54;21052;-68
2022/03/12 12:08:21;;;;;;;8.98;5.65;;;20.00;37.80;;;;;;2252752;55;21388;-67
2022/03/12 12:11:07;;;;;;;10.95;6.93;;;20.00;37.90;;;;;;2345500;54;21036;-69
2022/03/12 12:13:35;;;;;;;10.68;7.05;;;20.10;38.00;;;;;;2322327;53;21405;-67
2022/03/12 12:16:10;;;;;;;12.10;7.78;;;20.20;38.10;;;;;;2378088;54;21016;-67
2022/03/12 12:18:37;;;;;;;11.25;7.68;;;20.30;37.90;;;;;;2308510;54;20948;-67
2022/03/12 12:21:03;;;;;;;11.05;7.35;;;20.30;37.90;;;;;;2287407;54;20951;-67
2022/03/12 12:23:31;;;;;;;11.25;7.87;;;20.40;38.00;;;;;;2298473;54;20968;-68
2022/03/12 12:29:51;;;;;;;11.20;7.53;;;20.70;37.60;;;;;;2346163;54;21027;-68
2022/03/12 12:32:22;;;;;;;13.88;7.82;;;20.80;37.70;;;;;;2297820;54;21091;-68
2022/03/12 12:38:24;;;;;;;10.30;6.82;;;20.90;37.50;;;;;;2327350;54;20953;-69
2022/03/12 12:40:54;;;;;;;9.82;6.12;;;21.00;37.60;;;;;;2298344;54;20948;-68
2022/03/12 12:43:33;;;;;;;10.02;6.93;;;21.10;37.30;;;;;;2293644;55;20963;-67
2022/03/12 12:46:17;;;;;;;11.38;6.75;;;21.10;36.90;;;;;;2298607;54;21032;-66
2022/03/12 12:48:50;;;;;;;10.95;6.85;;;21.10;36.60;;;;;;2313545;53;20999;-68
2022/03/12 12:51:18;;;;;;;;;;;21.10;36.70;;;;;;2303739;54;20995;-67
2022/03/12 12:53:45;;;;;;;12.27;5.80;;;21.20;36.90;;;;;;2298171;54;20056;-68
2022/03/12 12:56:34;;;;;;;8.70;5.45;;;21.10;36.60;;;;;;2298706;54;21035;-68
2022/03/12 12:59:11;;;;;;;9.25;6.05;;;21.10;36.20;;;;;;2293981;54;20940;-67
2022/03/12 13:01:47;;;;;;;9.63;5.28;;;21.10;36.10;;;;;;2292492;54;20950;-67
2022/03/12 13:04:46;;;;;;;9.00;5.72;;;21.10;36.20;;;;;;2380750;54;21549;-68
2022/03/12 13:07:21;;;;;;;8.85;5.60;;;21.10;36.10;;;;;;2298698;54;20960;-68
2022/03/12 13:09:57;;;;;;;9.07;5.30;;;21.10;36.00;;;;;;2298628;54;21079;-67
2022/03/12 13:15:36;;;;;;;7.35;4.72;;;21.30;36.20;;;;;;2274543;55;21614;-68
2022/03/12 13:18:38;;;;;;;7.18;4.15;;;21.40;36.10;;;;;;2284666;54;21552;-68
2022/03/12 13:21:23;;;;;;;;;;;21.40;36.20;;;;;;2304301;54;20991;-68
2022/03/12 13:23:50;;;;;;;8.02;5.05;;;21.50;36.40;;;;;;2290378;55;20072;-67
2022/03/12 13:26:19;;;;;;;8.90;5.70;;;21.60;36.40;;;;;;2311032;54;20941;-66
2022/03/12 13:28:53;;;;;;;10.90;6.50;;;21.60;36.10;;;;;;2299542;54;21028;-67
2022/03/12 13:31:40;;;;;;;9.10;6.30;;;21.60;35.80;;;;;;2364333;54;21838;-67
2022/03/12 13:34:11;;;;;;;9.48;5.87;;;21.50;35.40;;;;;;2290776;54;20959;-68
2022/03/12 13:36:45;;;;;;;10.35;6.00;;;21.50;35.20;;;;;;2312449;54;21645;-69
2022/03/12 13:39:13;;;;;;;9.50;6.45;;;21.40;35.10;;;;;;2338220;54;20934;-68
2022/03/12 13:41:48;;;;;;;11.55;6.32;;;21.30;35.20;;;;;;2293556;54;20958;-68
2022/03/12 13:44:19;;;;;;;10.45;6.72;;;21.30;35.00;;;;;;2303801;54;21480;-68
2022/03/12 13:46:50;;;;;;;9.00;5.85;;;21.20;35.10;;;;;;2298214;54;21016;-68
2022/03/12 13:49:19;;;;;;;12.85;7.07;;;21.10;35.10;;;;;;2310797;54;20947;-68
2022/03/12 13:52:03;;;;;;;11.32;7.00;;;21.00;35.20;;;;;;2326512;54;20948;-69
2022/03/12 13:54:29;;;;;;;;;;;21.00;35.10;;;;;;2304702;54;20996;-67
2022/03/12 13:57:00;;;;;;;10.27;6.57;;;20.90;35.20;;;;;;2297088;54;20068;-67
2022/03/12 13:59:31;;;;;;;12.43;7.70;;;20.90;35.10;;;;;;2298287;54;20924;-69
2022/03/12 14:02:03;;;;;;;12.40;7.62;;;20.90;35.00;;;;;;2319862;54;21022;-69
2022/03/12 14:04:32;;;;;;;9.85;6.50;;;20.80;34.90;;;;;;2293143;54;21102;-66
2022/03/12 14:07:18;;;;;;;9.95;6.43;;;20.80;35.00;;;;;;2319332;54;21039;-66
2022/03/12 14:09:54;;;;;;;9.18;6.03;;;20.80;35.30;;;;;;2297760;54;20983;-66
2022/03/12 14:12:27;;;;;;;11.20;6.25;;;20.90;35.60;;;;;;2311677;54;21087;-66
2022/03/12 14:15:03;;;;;;;13.23;7.12;;;20.90;35.40;;;;;;2317537;54;20971;-68
2022/03/12 14:20:44;;;;;;;9.15;6.10;;;21.00;34.80;;;;;;2299199;54;21040;-67
2022/03/12 14:23:25;;;;;;;9.38;6.60;;;21.00;34.70;;;;;;2290243;54;21011;-67
2022/03/12 14:29:36;;;;;;;8.88;5.18;;;20.80;34.30;;;;;;2328533;54;21007;-67
2022/03/12 14:34:58;;;;;;;9.23;5.75;;;20.80;34.70;;;;;;2312909;54;20987;-66
2022/03/12 14:37:29;;;;;;;8.45;5.55;;;20.80;34.80;;;;;;2300978;54;20997;-67
2022/03/12 14:40:22;;;;;;;9.70;5.43;;;20.80;34.70;;;;;;2300003;54;20984;-66
2022/03/12 14:42:51;;;;;;;8.18;5.53;;;20.80;34.70;;;;;;2321895;54;21020;-66
2022/03/12 14:45:18;;;;;;;7.97;5.12;;;20.70;34.60;;;;;;2299008;54;20996;-66
2022/03/12 14:47:50;;;;;;;8.85;5.57;;;20.80;34.50;;;;;;2305042;54;21039;-66
2022/03/12 14:50:19;;;;;;;8.68;5.43;;;20.70;34.50;;;;;;2294933;55;21021;-66
2022/03/12 14:52:48;;;;;;;8.63;5.62;;;20.70;34.50;;;;;;2269730;55;20993;-66
2022/03/12 14:55:15;;;;;;;9.52;5.12;;;20.60;34.30;;;;;;2292371;54;20952;-67
2022/03/12 14:57:46;;;;;;;7.85;5.03;;;20.60;34.60;;;;;;2302699;54;21716;-67
2022/03/12 15:00:22;;;;;;;8.07;5.12;;;20.60;34.80;;;;;;2298289;54;21079;-65
2022/03/12 15:15:43;;;;;;;8.63;5.10;;;20.60;34.80;;;;;;2296773;54;21891;-67
2022/03/12 15:21:37;;;;;;;7.72;4.50;;;20.60;34.30;;;;;;2307058;54;21015;-66
2022/03/12 15:24:13;;;;;;;8.02;4.95;;;20.50;34.40;;;;;;2324842;53;21078;-67
2022/03/12 15:27:06;;;;;;;7.97;4.57;;;20.50;34.20;;;;;;2291599;55;20964;-67
2022/03/12 15:34:27;;;;;;;7.75;4.25;;;20.40;34.20;;;;;;2317709;53;21047;-67
2022/03/12 15:36:58;;;;;;;9.43;4.18;;;20.30;34.20;;;;;;2299282;54;21007;-68
2022/03/12 15:43:21;;;;;;;7.32;4.40;;;20.10;34.00;;;;;;2305246;54;20996;-67
2022/03/12 15:46:11;;;;;;;;;;;;;;;;;;;;;